Saturday, December 15, 2018, 1:24 PM EST
Back to Local

KOXC, Oxford, Waterbury-oxford Airport

Location: Oxford, CT, United States Lat: 41.483
Local Time: 1:24 PM EST (18:24 GMT) Lon: -73.133
Time Zone: US/Eastern Elev: 725 ft

Show me the last for .
Show Decoded

2018-12-15 12:51 METAR KOXC 151751Z 02007KT 10SM FEW048 08/07 A3012 RMK AO2 SLP215 60001
                 T00830067 10089 20050 56026 =
2018-12-15 11:51 METAR KOXC 151651Z 03006KT 10SM OVC038 08/07 A3014 RMK AO2 SLP222 T00830067 =
2018-12-15 10:51 METAR KOXC 151551Z 00000KT 10SM BKN070 08/08 A3017 RMK AO2 SLP231 T00830083 =
2018-12-15 10:04 METAR KOXC 151504Z 00000KT 8SM FEW012 SCT025 OVC035 07/07 A3019 RMK AO2 =
2018-12-15 09:51 METAR KOXC 151451Z 33003KT 8SM FEW012 BKN025 OVC033 07/07 A3020 RMK AO2
                 RAE03B26E40 SLP243 P0000 60001 T00670067 51001 =
2018-12-15 09:46 METAR KOXC 151446Z 34004KT 6SM BR SCT015 OVC025 07/07 A3020 RMK AO2 RAE03B26E40
                 P0000 =
2018-12-15 09:37 METAR KOXC 151437Z 35004KT 2SM -RA BR FEW009 BKN013 OVC025 06/06 A3020 RMK AO2
                 RAE03B26 P0000 =
2018-12-15 09:21 METAR KOXC 151421Z 01003KT 1 3/4SM BR OVC011 07/07 A3020 RMK AO2 RAE03 P0000 =
2018-12-15 09:16 METAR KOXC 151416Z 35003KT 4SM BR OVC011 07/07 A3020 RMK AO2 RAE03 P0000 =
2018-12-15 09:00 METAR KOXC 151400Z 35004KT 3SM -RA BR BKN009 BKN029 OVC037 07/07 A3020 RMK AO2
                 CIG 007V013 P0000 =
2018-12-15 08:51 METAR KOXC 151351Z 00000KT 1 1/2SM -RA BR BKN009 OVC035 06/06 A3020 RMK AO2 VIS
                 1V2 1/2 RAB16 CIG 006V013 SLP243 P0001 T00610061 =
2018-12-15 08:47 METAR KOXC 151347Z 00000KT 1 1/4SM -RA BR BKN007 BKN029 OVC037 06/06 A3019 RMK
                 AO2 RAB16 CIG 006V013 P0001 =
2018-12-15 08:33 METAR KOXC 151333Z 36003KT 3/4SM -RA BR OVC007 06/06 A3019 RMK AO2 RAB16 CIG
                 004V010 P0000 =
2018-12-15 08:23 METAR KOXC 151323Z 35004KT 1SM -RA BR OVC005 06/06 A3019 RMK AO2 RAB16 CIG
                 003V009 P0000 =
2018-12-15 08:13 METAR KOXC 151313Z 35003KT 1 1/4SM BR OVC003 06/06 A3018 RMK AO2 CIG 003V007 =
2018-12-15 08:03 METAR KOXC 151303Z 35004KT 2SM BR OVC003 06/06 A3018 RMK AO2 =
2018-12-15 06:51 METAR KOXC 151151Z 00000KT 3SM BR OVC005 06/05 A3018 RMK AO2 SLP239 60003 70003
                 T00560050 10067 20050 55002 =
2018-12-15 05:51 METAR KOXC 151051Z AUTO 00000KT 3SM BR OVC007 06/06 A3018 RMK AO2 SLP237
                 T00560056 =
2018-12-15 05:29 METAR KOXC 151029Z AUTO 26003KT 3SM BR OVC009 06/06 A3018 RMK AO2 =
2018-12-15 05:11 METAR KOXC 151011Z AUTO 00000KT 1 1/2SM BR OVC009 06/06 A3018 RMK AO2 =
2018-12-15 04:51 METAR KOXC 150951Z AUTO 00000KT 5SM BR OVC009 06/06 A3018 RMK AO2 RAE0852 CIG
                 008V012 SLP237 T00610061 =
2018-12-15 03:51 METAR KOXC 150851Z AUTO 00000KT 5SM -RA BR BKN011 OVC018 06/06 A3019 RMK AO2
                 SLP240 P0001 60003 T00610061 58010 =
2018-12-15 03:45 METAR KOXC 150845Z AUTO 28003KT 3SM -RA BR FEW011 OVC018 06/06 A3019 RMK AO2
                 P0001 =
2018-12-15 03:29 METAR KOXC 150829Z AUTO 00000KT 1 3/4SM -RA BR BKN018 OVC031 06/06 A3019 RMK AO2
                 VIS 3/4V4 P0001 =
2018-12-15 03:20 METAR KOXC 150820Z AUTO 27003KT 2 1/2SM -RA BR BKN018 BKN031 OVC060 06/06 A3020
                 RMK AO2 VIS 1V4 CIG 001V022 P0001 =
2018-12-15 03:04 METAR KOXC 150804Z AUTO 00000KT 1 1/2SM -RA BR SCT008 BKN023 OVC060 06/06 A3020
                 RMK AO2 VIS 1/2V5 CIG 019V034 P0001 =
2018-12-15 02:59 METAR KOXC 150759Z AUTO 22003KT 4SM -RA BR SCT008 BKN023 OVC065 06/06 A3020 RMK
                 AO2 P0001 =
2018-12-15 02:51 METAR KOXC 150751Z AUTO 26003KT 5SM -RA BR BKN008 BKN012 OVC023 06/06 A3021 RMK
                 AO2 CIG 007V011 SLP247 P0002 T00610061 =
2018-12-15 02:33 METAR KOXC 150733Z AUTO 28004KT 4SM -RA BR BKN006 OVC011 06/06 A3022 RMK AO2
                 P0002 =
2018-12-15 02:13 METAR KOXC 150713Z AUTO 00000KT 2SM -RA BR OVC006 07/07 A3022 RMK AO2 VIS 1
                 1/4V3 CIG 002V007 P0001 =
2018-12-15 02:09 METAR KOXC 150709Z AUTO 00000KT 1 1/2SM -RA BR OVC004 07/07 A3022 RMK AO2 CIG
                 002V007 P0001 =
2018-12-15 02:02 METAR KOXC 150702Z AUTO 00000KT 3/4SM -RA BR OVC004 07/07 A3022 RMK AO2 CIG
                 002V006 P0001 =
2018-12-15 01:51 METAR KOXC 150651Z AUTO 00000KT 1/4SM -RA FG OVC002 07/07 A3022 RMK AO2 SLP250
                 P0000 T00670067 =
2018-12-15 00:51 METAR KOXC 150551Z AUTO 25003KT 1/4SM -RA FG OVC002 07/07 A3022 RMK AO2 RAB28
                 SLP251 P0000 60000 T00670067 10067 20056 56020 =
2018-12-14 22:51 METAR KOXC 150351Z AUTO 22003KT 1/4SM FG OVC002 06/06 A3026 RMK AO2 SLP267
                 T00610061 =
2018-12-14 21:51 METAR KOXC 150251Z AUTO 24003KT 1/2SM FG OVC002 06/06 A3028 RMK AO2 SLP273
                 T00610061 56014 =
2018-12-14 21:41 METAR KOXC 150241Z AUTO 00000KT 1/2SM FG OVC002 06/06 A3028 RMK AO2 =
2018-12-14 21:22 METAR KOXC 150222Z AUTO VRB03KT 1 1/2SM BR OVC002 06/06 A3029 RMK AO2 =
2018-12-14 21:07 METAR KOXC 150207Z AUTO 21003KT 2 1/2SM BR OVC002 06/06 A3028 RMK AO2 =
2018-12-14 20:58 METAR KOXC 150158Z AUTO 20003KT 3SM BR OVC002 06/06 A3028 RMK AO2 =
2018-12-14 20:51 METAR KOXC 150151Z 20004KT 3SM BR OVC005 06/06 A3029 RMK AO2 SLP274 T00610056 =
2018-12-14 19:51 METAR KOXC 150051Z 18005KT 8SM OVC005 06/05 A3030 RMK AO2 SLP281 T00560050 =
2018-12-14 18:51 METAR KOXC 142351Z 16005KT 10SM OVC007 06/04 A3032 RMK AO2 SLP287 60000
                 T00560044 10056 20050 58012 =
2018-12-14 17:51 METAR KOXC 142251Z 15006KT 10SM BKN012 OVC060 06/04 A3034 RMK AO2 RAB39E49
                 SLP292 P0000 T00560039 =
2018-12-14 16:51 METAR KOXC 142151Z 16005KT 10SM BKN013 OVC023 05/03 A3036 RMK AO2 SLP301
                 T00500028 =
2018-12-14 16:40 METAR KOXC 142140Z 16005KT 10SM OVC013 05/03 A3036 RMK AO2 =
2018-12-14 15:51 METAR KOXC 142051Z 16005KT 10SM OVC026 06/02 A3036 RMK AO2 SLP299 T00560022
                 58008 =
2018-12-14 14:51 METAR KOXC 141951Z 16005KT 10SM BKN015 OVC026 06/02 A3037 RMK AO2 SLP304
                 T00560022 =
2018-12-14 13:51 METAR KOXC 141851Z 13005KT 10SM OVC022 05/02 A3038 RMK AO2 SLP306 T00500022 =

Support USWX by starting your Amazon purchase here.